Time;durP1;ratioP1;P1;durP2;ratioP2;P2;SDS_P1;SDS_P2;PMS_P1;PMS_P2;Temp;Humidity;BMP_temperature;BMP_pressure;BME280_temperature;BME280_humidity;BME280_pressure;Samples;Min_cycle;Max_cycle;Signal;HPM_P1;HPM_P2
2023/06/29 04:00:30;;;;;;;5.70;3.80;;;17.30;99.90;;;;;;5915417;23;20111;-76
2023/06/29 04:02:55;;;;;;;7.45;3.70;;;17.30;99.90;;;;;;4984514;28;20031;-76
2023/06/29 04:05:21;;;;;;;8.68;3.90;;;17.30;99.90;;;;;;4988122;28;20041;-76
2023/06/29 04:07:47;;;;;;;6.13;3.30;;;17.30;99.90;;;;;;4982390;28;20030;-76
2023/06/29 04:10:12;;;;;;;5.40;4.03;;;17.30;99.90;;;;;;4978498;28;20046;-76
2023/06/29 04:12:38;;;;;;;8.20;3.38;;;17.30;99.90;;;;;;4981505;28;20026;-76
2023/06/29 04:15:04;;;;;;;5.85;4.00;;;17.30;99.90;;;;;;4981802;28;20026;-76
2023/06/29 04:17:30;;;;;;;7.32;3.47;;;17.30;99.90;;;;;;4980725;28;20487;-76
2023/06/29 04:19:55;;;;;;;4.97;3.40;;;17.30;99.90;;;;;;4978937;28;20027;-75
2023/06/29 04:22:21;;;;;;;5.38;3.60;;;17.40;99.90;;;;;;4978125;28;20447;-76
2023/06/29 04:24:46;;;;;;;6.53;3.70;;;17.40;99.90;;;;;;4976801;28;20046;-76
2023/06/29 04:27:12;;;;;;;5.57;3.72;;;17.40;99.90;;;;;;4959657;28;20273;-76
2023/06/29 04:29:37;;;;;;;6.30;3.27;;;17.60;99.90;;;;;;4960990;28;20057;-77
2023/06/29 04:32:03;;;;;;;5.93;3.25;;;17.60;99.90;;;;;;4966557;28;20266;-77
2023/06/29 04:34:29;;;;;;;7.63;3.40;;;17.60;99.90;;;;;;4994767;28;20036;-77
2023/06/29 04:36:56;;;;;;;5.45;3.38;;;17.60;99.90;;;;;;4985087;28;20023;-77
2023/06/29 04:39:22;;;;;;;6.53;3.22;;;17.70;99.90;;;;;;4986351;28;20034;-76
2023/06/29 04:41:47;;;;;;;4.63;3.25;;;17.80;99.90;;;;;;4982583;28;20033;-77
2023/06/29 04:44:13;;;;;;;5.45;2.95;;;17.80;99.90;;;;;;4979197;28;20027;-76
2023/06/29 04:46:40;;;;;;;8.30;3.20;;;17.90;99.90;;;;;;4978558;28;20041;-76
2023/06/29 04:49:06;;;;;;;5.55;3.25;;;17.90;99.90;;;;;;4978787;28;20495;-76
2023/06/29 04:51:36;;;;;;;7.55;3.33;;;18.00;99.90;;;;;;4996312;28;20086;-76
2023/06/29 04:54:05;;;;;;;5.93;3.60;;;18.00;99.90;;;;;;4996600;28;20030;-77
2023/06/29 04:56:31;;;;;;;5.63;3.45;;;18.10;99.90;;;;;;4996074;28;20029;-76
2023/06/29 04:58:57;;;;;;;3.97;3.17;;;18.20;99.90;;;;;;4979067;28;20022;-76
2023/06/29 05:01:23;;;;;;;6.78;3.30;;;18.30;99.90;;;;;;4997704;28;20129;-77
2023/06/29 05:03:49;;;;;;;4.90;3.10;;;18.30;99.90;;;;;;4981194;28;20053;-76
2023/06/29 05:06:14;;;;;;;8.20;3.10;;;18.30;99.90;;;;;;4980509;28;20041;-76
2023/06/29 05:08:40;;;;;;;6.03;3.20;;;18.30;99.90;;;;;;4996919;28;20062;-78
2023/06/29 05:11:06;;;;;;;6.78;3.58;;;18.30;99.90;;;;;;4978664;28;20037;-76
2023/06/29 05:13:35;;;;;;;4.97;3.08;;;18.30;99.90;;;;;;5003913;28;20030;-76
2023/06/29 05:16:04;;;;;;;6.55;3.10;;;18.40;99.90;;;;;;4995553;28;20094;-76
2023/06/29 05:18:30;;;;;;;8.05;3.30;;;18.50;99.90;;;;;;4978787;28;20117;-75
2023/06/29 05:21:23;;;;;;;4.80;2.92;;;18.70;99.90;;;;;;4979113;28;20469;-77
2023/06/29 05:23:49;;;;;;;6.20;4.15;;;18.80;99.90;;;;;;4976307;28;20056;-77
2023/06/29 05:26:14;;;;;;;9.13;3.45;;;18.90;99.90;;;;;;4977442;28;20027;-76
2023/06/29 05:28:40;;;;;;;6.82;3.00;;;19.20;99.90;;;;;;4985020;28;20399;-75
2023/06/29 05:31:05;;;;;;;6.63;3.17;;;19.30;99.90;;;;;;4976707;28;20018;-75
2023/06/29 05:33:31;;;;;;;6.15;2.88;;;19.60;99.90;;;;;;4994733;28;20162;-75
2023/06/29 05:35:56;;;;;;;5.60;2.75;;;19.80;99.90;;;;;;4993520;28;20022;-75
2023/06/29 05:38:22;;;;;;;5.43;2.42;;;20.00;99.90;;;;;;4994162;28;20321;-75
2023/06/29 05:40:47;;;;;;;9.15;2.55;;;20.30;99.90;;;;;;4977717;28;20018;-76
2023/06/29 05:43:13;;;;;;;5.78;2.38;;;20.50;99.90;;;;;;4995145;28;20357;-76
2023/06/29 05:45:39;;;;;;;4.95;2.75;;;20.60;99.90;;;;;;4979823;28;20403;-76
2023/06/29 05:48:05;;;;;;;5.28;3.10;;;20.70;99.90;;;;;;4981707;28;20062;-77
2023/06/29 05:50:31;;;;;;;7.70;2.90;;;20.70;99.90;;;;;;4997701;28;20061;-76
2023/06/29 05:52:56;;;;;;;6.78;2.40;;;20.80;99.90;;;;;;4980358;28;20019;-75
2023/06/29 05:55:23;;;;;;;3.80;2.63;;;20.90;99.60;;;;;;4997314;28;20478;-76
2023/06/29 05:57:49;;;;;;;6.00;2.80;;;21.00;99.40;;;;;;4979796;28;20056;-76
2023/06/29 06:00:15;;;;;;;4.50;2.08;;;21.10;99.00;;;;;;4978614;28;20394;-76
2023/06/29 06:02:40;;;;;;;;;;;21.20;98.80;;;;;;4999397;28;20034;-76
2023/06/29 06:05:07;;;;;;;5.30;2.60;;;21.30;98.30;;;;;;4997734;28;20001;-76
2023/06/29 06:07:34;;;;;;;7.57;2.88;;;21.20;98.20;;;;;;4979817;28;20030;-75
2023/06/29 06:09:59;;;;;;;8.60;2.42;;;21.30;97.90;;;;;;4977079;28;20026;-76
2023/06/29 06:12:25;;;;;;;5.78;2.97;;;21.30;98.00;;;;;;4977105;28;20042;-70
2023/06/29 06:14:51;;;;;;;5.55;2.60;;;21.40;97.90;;;;;;4994337;28;20045;-68
2023/06/29 06:17:18;;;;;;;4.82;2.42;;;21.50;97.60;;;;;;4996682;28;20502;-68
2023/06/29 06:19:44;;;;;;;4.45;2.30;;;21.60;97.20;;;;;;4996972;28;20033;-67
2023/06/29 06:22:09;;;;;;;4.53;2.35;;;21.80;96.90;;;;;;4997098;28;20026;-68
2023/06/29 06:24:35;;;;;;;5.10;2.90;;;22.10;96.40;;;;;;4979014;28;20030;-68
2023/06/29 06:27:01;;;;;;;;;;;22.40;96.20;;;;;;4979729;28;20130;-68
2023/06/29 06:29:27;;;;;;;7.88;2.80;;;22.70;95.60;;;;;;4998624;28;19912;-71
2023/06/29 06:31:53;;;;;;;5.15;2.53;;;23.00;94.80;;;;;;4978789;28;20030;-69
2023/06/29 06:34:19;;;;;;;8.00;2.70;;;23.30;94.00;;;;;;4994902;28;20034;-69
2023/06/29 06:36:48;;;;;;;5.35;2.38;;;23.40;93.50;;;;;;4998713;28;20033;-69
2023/06/29 06:39:18;;;;;;;5.18;2.20;;;23.30;93.60;;;;;;4998842;28;20034;-68
2023/06/29 06:41:43;;;;;;;5.93;3.00;;;23.20;93.70;;;;;;4998514;28;20109;-69
2023/06/29 06:44:09;;;;;;;7.28;2.30;;;23.30;93.70;;;;;;4998111;28;20487;-69
2023/06/29 06:46:35;;;;;;;;;;;23.30;93.40;;;;;;4998595;28;20538;-69
2023/06/29 06:49:00;;;;;;;4.18;2.13;;;23.40;93.30;;;;;;4997500;28;20302;-69
2023/06/29 06:51:27;;;;;;;5.63;2.45;;;23.50;93.30;;;;;;4997370;28;20386;-72
2023/06/29 06:53:54;;;;;;;6.15;2.90;;;23.50;93.30;;;;;;4980747;28;20039;-69
2023/06/29 06:56:19;;;;;;;;;;;23.60;93.00;;;;;;4993036;28;20015;-70
2023/06/29 06:58:45;;;;;;;4.68;2.28;;;23.60;92.80;;;;;;4997533;28;19913;-70
2023/06/29 07:01:11;;;;;;;8.98;3.45;;;23.60;93.00;;;;;;4997850;28;20034;-69
2023/06/29 07:03:36;;;;;;;6.40;2.90;;;23.70;92.90;;;;;;4997600;28;20041;-69
2023/06/29 07:06:02;;;;;;;;;;;23.80;92.90;;;;;;4981919;28;20027;-70
2023/06/29 07:08:28;;;;;;;5.78;2.65;;;23.80;92.90;;;;;;4960774;28;19906;-69
2023/06/29 07:10:53;;;;;;;;;;;24.10;92.50;;;;;;4978415;28;20519;-68
2023/06/29 07:13:19;;;;;;;5.07;2.50;;;24.10;92.30;;;;;;4978644;28;20259;-69
2023/06/29 07:15:47;;;;;;;;;;;24.30;91.90;;;;;;4978701;28;20025;-69
2023/06/29 07:18:12;;;;;;;5.85;2.80;;;24.30;91.60;;;;;;4960240;28;19914;-69
2023/06/29 07:20:38;;;;;;;;;;;24.40;91.50;;;;;;4978502;28;20027;-70
2023/06/29 07:23:03;;;;;;;8.05;2.45;;;24.70;91.40;;;;;;4964632;28;19906;-70
2023/06/29 07:25:29;;;;;;;;;;;24.80;91.00;;;;;;4971945;28;20019;-70
2023/06/29 07:27:54;;;;;;;7.35;2.55;;;25.00;91.00;;;;;;5004032;28;19906;-69
2023/06/29 07:30:20;;;;;;;;;;;25.10;90.80;;;;;;4986693;28;20356;-69
2023/06/29 07:32:46;;;;;;;5.68;2.53;;;25.30;90.80;;;;;;4978011;28;20333;-69
2023/06/29 07:35:12;;;;;;;12.18;2.72;;;25.20;90.70;;;;;;4960093;28;20027;-66
2023/06/29 07:37:37;;;;;;;8.43;2.58;;;25.30;90.30;;;;;;4977205;28;20436;-69
2023/06/29 07:40:06;;;;;;;;;;;25.50;90.40;;;;;;4977845;28;20022;-70
2023/06/29 07:42:32;;;;;;;4.50;2.47;;;25.60;90.30;;;;;;4977514;28;20005;-70
2023/06/29 07:44:57;;;;;;;;;;;25.80;90.00;;;;;;4960289;28;20046;-70
2023/06/29 07:47:23;;;;;;;6.97;2.50;;;25.60;90.30;;;;;;4959391;28;19906;-70
2023/06/29 07:49:48;;;;;;;;;;;25.80;90.40;;;;;;4978028;28;20038;-68
2023/06/29 07:52:14;;;;;;;7.50;2.72;;;25.60;90.30;;;;;;4959321;28;20390;-69
2023/06/29 07:54:39;;;;;;;4.75;2.25;;;25.90;90.10;;;;;;4984046;28;20030;-69
2023/06/29 07:57:05;;;;;;;7.05;2.53;;;26.20;89.30;;;;;;4994549;28;20027;-69
2023/06/29 07:59:31;;;;;;;3.95;2.58;;;26.20;87.60;;;;;;4996409;28;20022;-69
2023/06/29 08:01:56;;;;;;;8.68;2.53;;;26.20;88.30;;;;;;4996149;28;20030;-72
2023/06/29 08:04:22;;;;;;;7.93;2.80;;;26.10;87.10;;;;;;4997295;28;20553;-73
2023/06/29 08:06:47;;;;;;;7.93;2.95;;;26.20;87.50;;;;;;4998238;28;20494;-73
2023/06/29 08:09:14;;;;;;;5.10;2.55;;;26.20;85.80;;;;;;4998025;28;20376;-73
2023/06/29 08:11:39;;;;;;;5.22;2.78;;;26.40;86.30;;;;;;4996975;28;20112;-68
2023/06/29 08:14:05;;;;;;;7.38;2.55;;;26.90;85.70;;;;;;4996052;28;20388;-68
2023/06/29 08:16:31;;;;;;;3.40;2.15;;;27.40;85.20;;;;;;4995721;28;20031;-68
2023/06/29 08:18:57;;;;;;;4.70;2.30;;;28.00;83.60;;;;;;4995856;28;20030;-68
2023/06/29 08:21:23;;;;;;;8.30;2.83;;;28.80;81.40;;;;;;4995461;28;20412;-68
2023/06/29 08:23:50;;;;;;;3.92;2.10;;;29.70;78.70;;;;;;4995679;28;20046;-68
2023/06/29 08:26:16;;;;;;;7.47;2.30;;;30.20;76.80;;;;;;4978198;28;20484;-67
2023/06/29 08:28:42;;;;;;;7.45;2.38;;;30.40;74.80;;;;;;4996436;28;20026;-69
2023/06/29 08:31:08;;;;;;;5.30;2.50;;;30.30;75.00;;;;;;4995465;28;20073;-69
2023/06/29 08:33:33;;;;;;;4.38;2.30;;;30.20;74.40;;;;;;4995806;28;20093;-68
2023/06/29 08:35:59;;;;;;;6.43;2.47;;;29.90;74.20;;;;;;4995670;28;20053;-68
2023/06/29 08:38:24;;;;;;;7.20;2.50;;;29.30;74.90;;;;;;4995968;28;20157;-69
2023/06/29 08:40:51;;;;;;;3.78;2.28;;;29.30;76.20;;;;;;4995921;28;20033;-67
2023/06/29 08:43:17;;;;;;;5.85;2.10;;;30.70;73.80;;;;;;4978555;28;20088;-69
2023/06/29 08:45:46;;;;;;;3.60;2.00;;;32.10;71.30;;;;;;4996894;28;20053;-69
2023/06/29 08:48:13;;;;;;;3.22;2.03;;;33.50;69.40;;;;;;4996752;28;20121;-70
2023/06/29 08:50:45;;;;;;;4.18;2.05;;;34.80;67.60;;;;;;4997369;28;20026;-72
2023/06/29 08:53:13;;;;;;;5.40;2.03;;;36.50;62.00;;;;;;4990176;28;20070;-70
2023/06/29 08:55:42;;;;;;;4.72;2.55;;;36.20;61.00;;;;;;4962533;28;20081;-67
2023/06/29 08:58:08;;;;;;;2.53;1.90;;;36.50;61.20;;;;;;4984207;28;20022;-70
2023/06/29 09:00:35;;;;;;;5.47;2.28;;;36.50;60.30;;;;;;4994748;28;20044;-71
2023/06/29 09:03:03;;;;;;;5.60;2.17;;;35.90;59.50;;;;;;4977312;28;20019;-71
2023/06/29 09:05:29;;;;;;;3.70;2.35;;;34.40;61.00;;;;;;4983138;28;20515;-70
2023/06/29 09:07:55;;;;;;;6.35;2.30;;;32.90;62.50;;;;;;4957959;28;20062;-72
2023/06/29 09:10:22;;;;;;;3.88;1.85;;;32.00;63.50;;;;;;4975526;28;20481;-69
2023/06/29 09:12:49;;;;;;;6.05;2.00;;;31.30;64.40;;;;;;4957987;28;20027;-70
2023/06/29 09:15:16;;;;;;;3.65;2.17;;;30.80;65.80;;;;;;4976132;28;20535;-69
2023/06/29 09:17:45;;;;;;;8.18;2.25;;;30.70;66.80;;;;;;4958083;28;20053;-70
2023/06/29 09:20:15;;;;;;;4.40;2.22;;;30.70;66.80;;;;;;4958186;28;20078;-72
2023/06/29 09:22:41;;;;;;;6.38;2.00;;;31.10;65.50;;;;;;4983176;28;20093;-71
2023/06/29 09:25:09;;;;;;;5.90;2.10;;;31.60;64.50;;;;;;4977273;28;20033;-71
2023/06/29 09:27:35;;;;;;;5.63;2.40;;;31.50;65.00;;;;;;4994691;28;20030;-66
2023/06/29 09:30:03;;;;;;;6.05;2.65;;;31.30;65.50;;;;;;4995049;28;20050;-69
2023/06/29 09:32:29;;;;;;;5.10;2.20;;;30.90;66.60;;;;;;4995971;28;20121;-69
2023/06/29 09:35:04;;;;;;;5.78;2.70;;;30.30;67.20;;;;;;4998056;28;20030;-70
2023/06/29 09:37:30;;;;;;;4.53;2.42;;;29.90;68.50;;;;;;4994947;28;20093;-71
2023/06/29 09:39:56;;;;;;;7.43;2.35;;;29.60;69.00;;;;;;4995692;28;20080;-71
2023/06/29 09:42:23;;;;;;;5.05;2.50;;;29.30;70.40;;;;;;4981674;28;20050;-74
2023/06/29 09:44:49;;;;;;;6.97;2.70;;;29.00;71.60;;;;;;4977186;28;20046;-71
2023/06/29 09:47:14;;;;;;;5.00;2.20;;;28.60;72.70;;;;;;4976908;28;20037;-68
2023/06/29 09:49:47;;;;;;;8.82;3.20;;;28.40;73.60;;;;;;4994040;28;20038;-67
2023/06/29 09:52:15;;;;;;;10.80;2.72;;;28.10;75.30;;;;;;4991216;28;20483;-67
2023/06/29 09:54:41;;;;;;;9.50;2.70;;;27.80;75.50;;;;;;4975659;28;20058;-68
2023/06/29 09:57:10;;;;;;;4.05;2.50;;;27.70;77.40;;;;;;4986954;28;20478;-68
2023/06/29 09:59:38;;;;;;;6.50;2.67;;;27.70;76.80;;;;;;4979595;28;20049;-68
2023/06/29 10:02:03;;;;;;;8.68;3.00;;;27.80;77.60;;;;;;4980972;28;20062;-68
2023/06/29 10:04:29;;;;;;;4.15;2.42;;;28.10;76.00;;;;;;4979162;28;20038;-70
2023/06/29 10:07:08;;;;;;;7.55;2.40;;;28.30;75.50;;;;;;4976589;28;20033;-68
2023/06/29 10:09:40;;;;;;;8.55;2.80;;;28.40;75.30;;;;;;4993225;28;20422;-68
2023/06/29 10:12:08;;;;;;;6.03;2.72;;;28.50;75.20;;;;;;4993536;28;20031;-68
2023/06/29 10:14:37;;;;;;;4.10;2.47;;;28.80;74.60;;;;;;4993998;28;20364;-68
2023/06/29 10:17:07;;;;;;;7.90;3.25;;;29.00;74.30;;;;;;4976341;28;20054;-68
2023/06/29 10:19:34;;;;;;;5.50;2.70;;;29.30;73.60;;;;;;4994025;28;20022;-69
2023/06/29 10:22:05;;;;;;;4.65;2.42;;;29.60;73.20;;;;;;4977693;28;20479;-71
2023/06/29 10:24:37;;;;;;;9.15;2.80;;;29.90;72.60;;;;;;4994294;28;20026;-70
2023/06/29 10:27:04;;;;;;;5.47;2.55;;;29.80;71.80;;;;;;4993848;28;20034;-69
2023/06/29 10:29:30;;;;;;;6.68;2.88;;;29.50;72.10;;;;;;4976997;28;20033;-69
2023/06/29 10:31:58;;;;;;;5.13;2.40;;;29.30;72.50;;;;;;4989552;28;20030;-69
2023/06/29 10:34:27;;;;;;;8.13;2.70;;;29.10;72.70;;;;;;4974725;28;20065;-67
2023/06/29 10:36:57;;;;;;;6.78;2.53;;;29.10;73.00;;;;;;4993389;28;20037;-67
2023/06/29 10:39:38;;;;;;;5.88;2.83;;;29.10;73.10;;;;;;4990200;28;20124;-68
2023/06/29 10:42:29;;;;;;;7.57;3.13;;;28.90;72.70;;;;;;4981549;28;20015;-69
2023/06/29 10:44:55;;;;;;;5.18;2.60;;;28.80;73.00;;;;;;4992668;28;20030;-69
2023/06/29 10:47:28;;;;;;;4.88;2.72;;;28.70;72.90;;;;;;4994075;28;20507;-69
2023/06/29 10:50:09;;;;;;;7.28;2.58;;;28.60;72.90;;;;;;4994483;28;20026;-69
2023/06/29 10:52:35;;;;;;;5.45;2.50;;;28.40;72.90;;;;;;4988970;28;20064;-69
2023/06/29 10:55:14;;;;;;;5.85;2.40;;;28.30;72.90;;;;;;4991897;28;20026;-69
2023/06/29 10:57:50;;;;;;;17.60;3.42;;;28.30;72.80;;;;;;4976023;28;20026;-70
2023/06/29 11:00:16;;;;;;;9.43;2.53;;;28.30;77.80;;;;;;4993710;28;20030;-69
2023/06/29 11:02:42;;;;;;;6.45;2.30;;;28.10;73.90;;;;;;4974698;28;20038;-70
2023/06/29 11:05:13;;;;;;;7.32;3.05;;;28.10;73.40;;;;;;4993360;28;20048;-70
2023/06/29 11:07:43;;;;;;;5.55;2.83;;;28.00;73.70;;;;;;4984324;28;20093;-69
2023/06/29 11:10:09;;;;;;;10.45;2.80;;;28.00;74.40;;;;;;4986802;28;20030;-70
2023/06/29 11:12:38;;;;;;;7.38;2.90;;;27.90;75.30;;;;;;4993538;28;20022;-70
2023/06/29 11:15:15;;;;;;;6.18;2.83;;;27.80;74.30;;;;;;4993656;28;20050;-69
2023/06/29 11:17:42;;;;;;;7.72;2.60;;;27.70;73.90;;;;;;4990939;28;20034;-68
2023/06/29 11:20:13;;;;;;;7.45;3.08;;;27.60;73.40;;;;;;4992255;28;20034;-70
2023/06/29 11:22:39;;;;;;;8.98;2.63;;;27.50;73.40;;;;;;4997047;28;20025;-68
2023/06/29 11:25:06;;;;;;;6.00;2.67;;;27.70;73.70;;;;;;4979293;28;20054;-71
2023/06/29 11:27:32;;;;;;;8.23;2.53;;;28.20;73.30;;;;;;4979194;28;20034;-69
2023/06/29 11:29:57;;;;;;;4.57;2.30;;;28.60;72.00;;;;;;4975464;28;20031;-71
2023/06/29 11:32:26;;;;;;;7.38;2.78;;;28.70;71.60;;;;;;4977853;28;20030;-73
2023/06/29 11:35:02;;;;;;;5.15;2.50;;;28.90;70.60;;;;;;5004376;28;20022;-72
2023/06/29 11:37:32;;;;;;;5.00;2.20;;;29.40;69.70;;;;;;4999637;28;20026;-73
2023/06/29 11:39:58;;;;;;;5.30;2.55;;;29.60;69.20;;;;;;4999494;28;20019;-73
2023/06/29 11:42:29;;;;;;;8.57;3.25;;;29.70;68.80;;;;;;4993268;28;20097;-72
2023/06/29 11:45:06;;;;;;;6.78;3.20;;;29.70;69.30;;;;;;4961881;28;20444;-71
2023/06/29 11:47:32;;;;;;;12.40;3.15;;;29.60;69.80;;;;;;4987958;28;20034;-72
2023/06/29 11:49:59;;;;;;;7.15;2.95;;;29.40;68.70;;;;;;4990212;28;20066;-72
2023/06/29 11:52:35;;;;;;;7.88;2.88;;;29.10;68.70;;;;;;4971926;28;20027;-73
2023/06/29 11:55:06;;;;;;;6.15;2.70;;;28.90;69.40;;;;;;4978354;28;20039;-72
2023/06/29 11:57:37;;;;;;;8.55;2.90;;;28.80;69.90;;;;;;4985009;28;20030;-72
2023/06/29 12:00:25;;;;;;;10.45;2.55;;;28.70;69.90;;;;;;4998955;28;20033;-72
2023/06/29 12:02:50;;;;;;;8.13;2.95;;;28.80;69.50;;;;;;4978915;28;20031;-72
2023/06/29 12:05:16;;;;;;;6.03;2.60;;;28.50;70.00;;;;;;4979572;28;20077;-68
2023/06/29 12:07:42;;;;;;;9.07;2.55;;;28.70;70.50;;;;;;4979732;28;20037;-69
2023/06/29 12:10:12;;;;;;;6.50;2.53;;;28.80;69.60;;;;;;4998782;28;20026;-69
2023/06/29 12:12:43;;;;;;;7.05;2.80;;;28.90;69.70;;;;;;4976514;28;20054;-69
2023/06/29 12:15:16;;;;;;;7.05;2.35;;;28.90;69.20;;;;;;4982252;28;20435;-71
2023/06/29 12:17:42;;;;;;;7.38;2.65;;;29.10;69.10;;;;;;4965436;28;20026;-71
2023/06/29 12:20:15;;;;;;;5.65;2.05;;;29.30;68.40;;;;;;4979647;28;20043;-71
2023/06/29 12:22:42;;;;;;;7.72;2.28;;;29.50;68.20;;;;;;4975194;28;20374;-72
2023/06/29 12:25:12;;;;;;;5.20;2.30;;;29.80;67.50;;;;;;4971983;28;20110;-72
2023/06/29 12:27:41;;;;;;;6.50;2.25;;;29.50;66.50;;;;;;4984940;28;20054;-71
2023/06/29 12:30:07;;;;;;;7.20;2.42;;;29.20;67.50;;;;;;4981136;28;20439;-71
2023/06/29 12:32:32;;;;;;;6.82;3.17;;;28.60;68.60;;;;;;4979888;28;20030;-70
2023/06/29 12:34:58;;;;;;;6.38;2.50;;;28.70;68.90;;;;;;4977323;28;20605;-71
2023/06/29 12:37:24;;;;;;;7.70;2.78;;;28.80;68.20;;;;;;4984246;28;20042;-73
2023/06/29 12:39:49;;;;;;;4.80;2.20;;;29.10;68.80;;;;;;4995185;28;20092;-70
2023/06/29 12:42:15;;;;;;;8.68;2.03;;;29.30;68.40;;;;;;4994492;28;20029;-70
2023/06/29 12:44:40;;;;;;;5.72;2.53;;;29.40;67.80;;;;;;4985114;28;20034;-69
2023/06/29 12:47:06;;;;;;;10.38;2.50;;;29.50;67.90;;;;;;4974893;28;20550;-67
2023/06/29 12:49:32;;;;;;;8.07;2.30;;;29.60;68.20;;;;;;4993688;28;20073;-66
2023/06/29 12:51:57;;;;;;;6.32;2.10;;;29.30;68.30;;;;;;4978873;28;20034;-66
2023/06/29 12:54:24;;;;;;;4.53;2.00;;;29.30;67.50;;;;;;4993529;28;20031;-67
2023/06/29 12:56:49;;;;;;;4.57;2.25;;;28.90;67.80;;;;;;4997686;28;20108;-70
2023/06/29 12:59:15;;;;;;;4.28;2.20;;;29.10;68.40;;;;;;4997379;28;20529;-71
2023/06/29 13:01:40;;;;;;;6.03;2.65;;;29.40;67.50;;;;;;4997609;28;20030;-71
2023/06/29 13:04:06;;;;;;;4.10;2.13;;;29.40;67.50;;;;;;4994932;28;20026;-70
2023/06/29 13:06:32;;;;;;;4.70;2.30;;;29.50;67.00;;;;;;4995060;28;20018;-70
2023/06/29 13:08:57;;;;;;;3.85;1.85;;;29.30;67.00;;;;;;4995028;28;20486;-72
2023/06/29 13:11:23;;;;;;;4.45;2.53;;;29.40;67.20;;;;;;4995114;28;20505;-72
2023/06/29 13:13:48;;;;;;;4.07;1.90;;;29.50;66.80;;;;;;4977539;28;20121;-73
2023/06/29 13:16:14;;;;;;;7.05;2.50;;;29.30;67.00;;;;;;4977518;28;20018;-71
2023/06/29 13:18:39;;;;;;;5.07;2.30;;;29.50;67.40;;;;;;4987847;28;20042;-72
2023/06/29 13:21:05;;;;;;;5.10;2.55;;;29.60;67.20;;;;;;4989359;28;20037;-72
2023/06/29 13:23:30;;;;;;;6.03;2.55;;;29.60;67.00;;;;;;5006825;28;20086;-72
2023/06/29 13:25:56;;;;;;;6.45;2.40;;;29.40;67.20;;;;;;4991309;28;20062;-72
2023/06/29 13:28:21;;;;;;;4.47;2.22;;;29.60;67.60;;;;;;5002323;28;20034;-71
2023/06/29 13:30:47;;;;;;;8.43;2.58;;;29.50;67.50;;;;;;4994329;28;20026;-73
2023/06/29 13:33:13;;;;;;;5.85;2.30;;;29.50;67.50;;;;;;4994695;28;20034;-71
2023/06/29 13:35:38;;;;;;;7.53;2.65;;;29.40;68.10;;;;;;4996876;28;20037;-68
2023/06/29 13:38:04;;;;;;;4.45;2.65;;;29.20;68.30;;;;;;5003688;28;20392;-68
2023/06/29 13:40:29;;;;;;;8.40;2.88;;;29.40;67.70;;;;;;4986182;28;20093;-66
2023/06/29 13:42:55;;;;;;;7.78;2.47;;;29.50;67.40;;;;;;5000895;28;20594;-67
2023/06/29 13:45:20;;;;;;;5.28;2.40;;;29.60;67.40;;;;;;4991884;28;20019;-67
2023/06/29 13:47:46;;;;;;;6.25;2.60;;;29.70;66.90;;;;;;4979654;28;20035;-67
2023/06/29 13:50:12;;;;;;;8.70;2.60;;;29.80;66.80;;;;;;4986334;28;20038;-71
2023/06/29 13:52:37;;;;;;;3.80;2.80;;;29.70;67.20;;;;;;4983489;28;20050;-69
2023/06/29 13:55:03;;;;;;;5.25;3.00;;;29.60;66.80;;;;;;4968310;28;20030;-69
2023/06/29 13:57:29;;;;;;;5.38;2.85;;;29.60;67.00;;;;;;4987722;28;20368;-69
2023/06/29 13:59:54;;;;;;;6.43;3.03;;;29.50;67.10;;;;;;4986396;28;20023;-70
2023/06/29 14:02:20;;;;;;;5.78;2.67;;;29.70;67.30;;;;;;4968754;28;20039;-68
2023/06/29 14:04:45;;;;;;;4.97;2.88;;;29.80;66.60;;;;;;4987010;28;20023;-69
2023/06/29 14:07:12;;;;;;;4.68;3.20;;;29.70;66.60;;;;;;4999016;28;20042;-69
2023/06/29 14:09:37;;;;;;;4.63;3.30;;;29.80;66.60;;;;;;4998592;28;20056;-70
2023/06/29 14:12:04;;;;;;;6.82;4.35;;;29.70;66.70;;;;;;4984085;28;20022;-68
2023/06/29 14:14:29;;;;;;;10.95;3.95;;;29.50;67.40;;;;;;4980576;28;20030;-69
2023/06/29 14:16:55;;;;;;;7.43;3.97;;;29.00;67.00;;;;;;4995555;28;20444;-67
2023/06/29 14:19:21;;;;;;;8.27;3.35;;;28.80;68.10;;;;;;4996797;28;20026;-69
2023/06/29 14:21:46;;;;;;;8.05;3.33;;;28.80;69.00;;;;;;4977558;28;20491;-69
2023/06/29 14:24:12;;;;;;;7.68;4.78;;;28.70;67.80;;;;;;4994139;28;20093;-73
2023/06/29 14:26:37;;;;;;;5.03;3.25;;;28.60;67.80;;;;;;4987349;28;20064;-71
2023/06/29 14:29:03;;;;;;;9.13;3.47;;;28.40;68.30;;;;;;4994426;28;20061;-71
2023/06/29 14:31:28;;;;;;;8.15;3.10;;;28.40;68.70;;;;;;4976904;28;20029;-72
2023/06/29 14:33:54;;;;;;;7.88;3.28;;;28.40;68.90;;;;;;4971961;28;20023;-72
2023/06/29 14:36:20;;;;;;;6.00;4.00;;;28.30;69.40;;;;;;4973289;28;20026;-72
2023/06/29 14:38:45;;;;;;;5.60;3.05;;;28.30;70.30;;;;;;4974138;28;20369;-71
2023/06/29 14:41:11;;;;;;;4.25;3.20;;;28.20;73.30;;;;;;4976428;28;20015;-72
2023/06/29 14:43:36;;;;;;;6.32;3.35;;;28.10;74.50;;;;;;4976045;28;20467;-72
2023/06/29 14:46:02;;;;;;;4.88;2.72;;;27.90;74.10;;;;;;4966436;28;20424;-73
2023/06/29 14:48:27;;;;;;;7.90;2.72;;;27.70;75.50;;;;;;4966557;28;20130;-72
2023/06/29 14:50:53;;;;;;;6.70;2.80;;;27.60;75.30;;;;;;4975999;28;20030;-72
2023/06/29 14:53:23;;;;;;;5.45;3.15;;;27.50;74.70;;;;;;4993157;28;20054;-72
2023/06/29 14:55:49;;;;;;;5.85;3.03;;;27.40;73.60;;;;;;4989697;28;20081;-74
2023/06/29 14:58:15;;;;;;;6.25;2.83;;;27.30;74.10;;;;;;4964650;28;20031;-71
2023/06/29 15:00:41;;;;;;;5.03;2.50;;;27.10;74.90;;;;;;4969023;28;20027;-72
2023/06/29 15:03:06;;;;;;;5.40;2.90;;;27.00;74.40;;;;;;4995400;28;20033;-72
2023/06/29 15:05:33;;;;;;;5.13;2.70;;;27.00;74.70;;;;;;4969469;28;20023;-72
2023/06/29 15:07:58;;;;;;;8.10;3.13;;;26.80;76.10;;;;;;4977802;28;20030;-72
2023/06/29 15:10:24;;;;;;;5.38;2.67;;;26.60;76.80;;;;;;4977652;28;20022;-72
2023/06/29 15:12:50;;;;;;;8.93;3.33;;;26.50;76.30;;;;;;4993720;28;20027;-70
2023/06/29 15:15:16;;;;;;;4.40;2.70;;;26.40;76.60;;;;;;4968102;28;20043;-70
2023/06/29 15:17:42;;;;;;;6.25;2.80;;;26.40;76.70;;;;;;4989974;28;20029;-69
2023/06/29 15:20:09;;;;;;;7.43;3.00;;;26.50;75.90;;;;;;4992397;28;20069;-69
2023/06/29 15:22:34;;;;;;;7.90;2.72;;;26.70;75.40;;;;;;4984953;28;20037;-68
2023/06/29 15:25:00;;;;;;;11.38;3.45;;;26.90;75.10;;;;;;4994438;28;20022;-69
2023/06/29 15:27:25;;;;;;;8.02;2.88;;;27.00;74.70;;;;;;4988815;28;20475;-69
2023/06/29 15:29:51;;;;;;;4.15;2.60;;;27.00;74.40;;;;;;4993042;28;20030;-68
2023/06/29 15:32:17;;;;;;;4.78;3.15;;;27.20;74.00;;;;;;4965190;28;20066;-68
2023/06/29 15:34:42;;;;;;;7.20;2.85;;;27.30;73.90;;;;;;4977246;28;20034;-69
2023/06/29 15:37:08;;;;;;;5.13;2.80;;;27.50;73.50;;;;;;4977112;28;20030;-68
2023/06/29 15:39:35;;;;;;;6.03;3.05;;;27.70;73.40;;;;;;4960197;28;20019;-68
2023/06/29 15:42:01;;;;;;;6.88;3.15;;;27.80;72.90;;;;;;4977322;28;20443;-69
2023/06/29 15:44:26;;;;;;;6.72;3.22;;;27.80;72.10;;;;;;4960887;28;20060;-69
2023/06/29 15:46:53;;;;;;;10.90;3.28;;;27.70;72.50;;;;;;4977178;28;20080;-70
2023/06/29 15:49:20;;;;;;;7.15;2.95;;;27.70;73.00;;;;;;4977207;28;20042;-69
2023/06/29 15:51:45;;;;;;;4.72;3.15;;;27.80;73.10;;;;;;4984803;28;20026;-69
2023/06/29 15:54:11;;;;;;;5.80;3.53;;;28.10;72.90;;;;;;4990606;28;20053;-69
2023/06/29 15:56:36;;;;;;;13.02;9.50;;;28.20;72.70;;;;;;4978381;28;20034;-68
2023/06/29 15:59:02;;;;;;;8.15;6.68;;;28.40;72.50;;;;;;4995754;28;20034;-71
2023/06/29 16:01:27;;;;;;;25.85;19.73;;;28.30;72.60;;;;;;4996640;28;20081;-70
2023/06/29 16:03:53;;;;;;;7.05;3.55;;;28.20;71.90;;;;;;4997000;28;20376;-68
2023/06/29 16:06:27;;;;;;;6.75;3.15;;;28.10;71.80;;;;;;4996236;28;20475;-69
2023/06/29 16:08:53;;;;;;;7.78;3.30;;;28.00;71.90;;;;;;4978887;28;20133;-69
2023/06/29 16:11:18;;;;;;;6.45;3.10;;;27.80;72.50;;;;;;4996164;28;20438;-69
2023/06/29 16:13:44;;;;;;;6.97;3.80;;;27.70;73.00;;;;;;4978703;28;20027;-69
2023/06/29 16:16:10;;;;;;;6.22;3.42;;;27.60;73.30;;;;;;4995540;28;20040;-69
2023/06/29 16:18:36;;;;;;;8.25;3.50;;;27.60;73.40;;;;;;4979075;28;20080;-70
2023/06/29 16:21:01;;;;;;;4.70;3.38;;;27.70;73.10;;;;;;4996059;28;20018;-69
2023/06/29 16:23:28;;;;;;;7.72;3.78;;;27.70;72.90;;;;;;4996384;28;20058;-68
2023/06/29 16:25:53;;;;;;;5.78;3.78;;;27.70;72.70;;;;;;4978462;28;20034;-69
2023/06/29 16:28:19;;;;;;;6.43;4.03;;;27.80;72.20;;;;;;4994067;28;20037;-69
2023/06/29 16:30:44;;;;;;;7.97;3.95;;;27.60;72.50;;;;;;4991050;28;20034;-69
2023/06/29 16:33:10;;;;;;;8.05;4.07;;;27.30;73.10;;;;;;4986924;28;20402;-70
2023/06/29 16:35:36;;;;;;;6.30;3.95;;;27.10;73.50;;;;;;4995433;28;20120;-69
2023/06/29 16:38:02;;;;;;;6.97;4.30;;;27.20;73.60;;;;;;4995575;28;20491;-69
2023/06/29 16:40:28;;;;;;;7.07;4.15;;;27.20;73.90;;;;;;4977954;28;20113;-69
2023/06/29 16:42:53;;;;;;;6.53;4.03;;;27.10;73.80;;;;;;4994041;28;20108;-69
2023/06/29 16:45:20;;;;;;;7.50;4.18;;;27.00;73.90;;;;;;4977471;28;20056;-70
2023/06/29 16:47:45;;;;;;;8.13;3.80;;;26.90;74.20;;;;;;4978588;28;20117;-70